San Francisco, CA (94115)

5:44 AM PDT on October 22, 2014 (GMT -0700)
Japantown | Change Station
CLOSE
Current Station
Personal Weather Station
Location: San Francisco, CA
Elevation: 358 ft
Nearby Weather Stations

Elev 358 ft 37.79 °N, 122.43 °W | Updated 4 minutes ago

Clear
Clear
55.6 °F
Feels Like 55.6 °F
N
0.0
Wind Variable Wind from North
Gusts 0.0 mph

Today
High -- | Low -- °F
--% Chance of Precip.
Yesterday
High -- | Low -- °F
Precip. -- in
7:25 AM 6:22 PM
Waning Crescent, 2% visible
Pressure 30.04 in
Visibility 10.0 miles
Clouds Clear
Dew Point 50 °F
Humidity 83%
Rainfall 0.00 in
Snow Depth Not available.
UV 0 out of 12
Pollen 2.40 out of 12
PM2.5 Good
Flu Activity Sporadic
METAR KSFO 221156Z 22004KT 10SM CLR 14/11 A3004 RMK AO2 SLP171 T01390106 10172 20139 58002 $

More Conditions Fewer Conditions

Pressure 30.04 in
Visibility 10.0 miles
Clouds Clear
Dew Point 50 °F
Humidity 83%
Rainfall 0.00 in
Snow Depth Not available.
UV 0 out of 12
Pollen 2.40 out of 12
PM2.5 Good
Flu Activity Sporadic
METAR KSFO 221156Z 22004KT 10SM CLR 14/11 A3004 RMK AO2 SLP171 T01390106 10172 20139 58002 $

More Conditions Fewer Conditions

10-Day Weather Forecast

Almanac

Astronomy

Oct. 22, 2014 Rise Set
Actual Time 7:25 AM PDT 6:22 PM PDT
Civil Twilight 6:58 AM PDT 6:49 PM PDT
Nautical Twilight 6:27 AM PDT 7:20 PM PDT
Astronomical Twilight 5:57 AM PDT 7:50 PM PDT
Moon 6:12 AM PDT 5:51 PM PDT
Length of Visible Light 11h 51m
Length of Day
10h 57m
Tomorrow will be 2m 16s shorter.
Waning Crescent, 2% of the Moon is Illuminated
Today
Waning Crescent
Oct 23
New
Oct 30
First Quarter
Nov 6
Full
Nov 14
Last Quarter

Today's Extremes

State Highs State Lows

Community

WunderPhotos

Upload Photos

1,763,907 photos uploaded!

Nearby

Air Quality

  Air Quality AQ Index Pollutant
Yesterday Good
OZONE
Yesterday Good
PM2.5
Current Good
PM2.5
Wednesday Good
OZONE
Thursday Good
PM2.5
Friday Good
PM2.5
Saturday Good
PM2.5
Sunday Good
PM2.5

Snow Depth

Station Depth Elevation
Carson Pass 0 in 8500 ft
Blue Lakes 0 in 8000 ft
Echo Peak 1 in 7800 ft
Forestdale Creek 1 in 8029 ft
Rubicon #2 1 in 7500 ft

Earthquake Activity

City Distance Mag. Time & Date
No recent earthquake activity has been reported nearby.
Minimum magnitude displayed is 2.5.

Coastal Water Temperatures

Place Temperature
San Francisco, CA 62.1 °F
Richmond, CA 64.0 °F
Port Chicago, CA 66.0 °F

Nearby Weather Stations